createdAt,value
2018-04-18T00:01:41.460Z,3.90
2018-04-18T00:04:07.851Z,3.70
2018-04-18T00:06:34.194Z,4.37
2018-04-18T00:09:00.563Z,4.13
2018-04-18T00:11:26.941Z,4.30
2018-04-18T00:13:53.319Z,4.70
2018-04-18T00:16:19.697Z,4.53
2018-04-18T00:18:46.064Z,4.57
2018-04-18T00:21:12.433Z,4.13
2018-04-18T00:23:38.825Z,4.20
2018-04-18T00:26:05.196Z,4.37
2018-04-18T00:28:31.582Z,4.13
2018-04-18T00:30:58.711Z,4.10
2018-04-18T00:33:25.059Z,3.50
2018-04-18T00:35:52.180Z,4.93
2018-04-18T00:38:18.583Z,4.23
2018-04-18T00:40:45.020Z,4.57
2018-04-18T00:43:11.399Z,4.50
2018-04-18T00:45:37.787Z,4.73
2018-04-18T00:48:04.319Z,4.03
2018-04-18T00:50:30.701Z,4.60
2018-04-18T00:52:57.084Z,4.20
2018-04-18T00:55:23.443Z,4.47
2018-04-18T00:57:49.817Z,4.37
2018-04-18T01:00:16.940Z,4.90
2018-04-18T01:02:43.298Z,4.33
2018-04-18T01:05:10.424Z,4.40
2018-04-18T01:07:36.840Z,4.40
2018-04-18T01:10:03.222Z,4.83
2018-04-18T01:12:29.578Z,4.50
2018-04-18T01:14:56.010Z,3.87
2018-04-18T01:17:22.394Z,4.43
2018-04-18T01:19:48.783Z,4.73
2018-04-18T01:22:15.202Z,4.40
2018-04-18T01:24:41.580Z,3.77
2018-04-18T01:27:07.936Z,4.50
2018-04-18T01:29:35.116Z,4.07
2018-04-18T01:32:01.457Z,4.40
2018-04-18T01:34:27.847Z,4.80
2018-04-18T01:36:55.004Z,4.20
2018-04-18T01:39:22.158Z,4.23
2018-04-18T01:41:49.299Z,4.37
2018-04-18T01:44:16.472Z,4.63
2018-04-18T01:46:42.844Z,3.97
2018-04-18T01:49:20.228Z,4.40
2018-04-18T01:51:46.614Z,4.30
2018-04-18T01:54:13.014Z,4.40
2018-04-18T01:56:39.411Z,4.03
2018-04-18T01:59:05.780Z,4.60
2018-04-18T02:01:32.154Z,3.97
2018-04-18T02:03:58.503Z,4.70
2018-04-18T02:06:24.868Z,4.03
2018-04-18T02:08:51.268Z,4.60
2018-04-18T02:11:17.647Z,4.43
2018-04-18T02:13:44.032Z,4.37
2018-04-18T02:16:10.883Z,4.60
2018-04-18T02:18:37.275Z,4.00
2018-04-18T02:21:04.394Z,3.93
2018-04-18T02:23:30.773Z,4.77
2018-04-18T02:25:57.179Z,4.57
2018-04-18T02:28:24.337Z,5.00
2018-04-18T02:30:50.749Z,4.40
2018-04-18T02:33:17.895Z,4.53
2018-04-18T02:35:44.311Z,4.57
2018-04-18T02:38:10.668Z,4.67
2018-04-18T02:40:37.050Z,5.20
2018-04-18T02:43:04.555Z,4.20
2018-04-18T02:45:37.902Z,4.70
2018-04-18T02:48:04.436Z,4.60
2018-04-18T02:50:30.854Z,4.80
2018-04-18T02:52:57.247Z,5.20
2018-04-18T02:55:23.616Z,5.13
2018-04-18T02:57:50.017Z,5.00
2018-04-18T03:00:16.408Z,4.90
2018-04-18T03:02:42.774Z,4.70
2018-04-18T03:05:09.180Z,5.10
2018-04-18T03:07:35.578Z,4.50
2018-04-18T03:10:01.964Z,4.63
2018-04-18T03:12:28.341Z,4.97
2018-04-18T03:14:55.511Z,4.60
2018-04-18T03:17:21.871Z,4.60
2018-04-18T03:19:48.263Z,5.17
2018-04-18T03:22:14.635Z,4.70
2018-04-18T03:24:40.997Z,4.93
2018-04-18T03:27:07.369Z,4.57
2018-04-18T03:29:33.741Z,4.17
2018-04-18T03:32:00.095Z,4.90
2018-04-18T03:34:27.221Z,4.83
2018-04-18T03:36:53.634Z,5.00
2018-04-18T03:39:20.020Z,5.23
2018-04-18T03:41:47.151Z,5.00
2018-04-18T03:44:13.571Z,4.27
2018-04-18T03:46:39.960Z,5.13
2018-04-18T03:49:06.355Z,5.53
2018-04-18T03:51:32.689Z,5.40
2018-04-18T03:53:59.056Z,4.90
2018-04-18T03:56:25.414Z,5.80
2018-04-18T03:58:51.767Z,5.70
2018-04-18T04:01:18.113Z,5.53
2018-04-18T04:03:44.532Z,5.43
2018-04-18T04:06:10.887Z,5.63
2018-04-18T04:08:37.247Z,5.50
2018-04-18T04:11:04.358Z,5.63
2018-04-18T04:13:30.760Z,5.13
2018-04-18T04:15:57.152Z,5.70
2018-04-18T04:18:36.360Z,5.47
2018-04-18T04:24:15.777Z,6.00
2018-04-18T04:26:42.142Z,5.87
2018-04-18T04:29:08.502Z,6.00
2018-04-18T04:31:35.668Z,5.73
2018-04-18T04:34:02.094Z,6.07
2018-04-18T04:36:28.451Z,6.57
2018-04-18T04:38:54.856Z,6.10
2018-04-18T04:41:21.978Z,6.43
2018-04-18T04:43:48.348Z,6.27
2018-04-18T04:46:14.737Z,5.93
2018-04-18T04:48:41.096Z,6.73
2018-04-18T04:51:07.472Z,6.40
2018-04-18T04:53:33.903Z,6.40
2018-04-18T04:56:00.264Z,5.80
2018-04-18T04:58:26.663Z,6.53
2018-04-18T05:00:59.893Z,7.00
2018-04-18T05:03:26.223Z,6.50
2018-04-18T05:05:52.620Z,5.87
2018-04-18T05:08:18.997Z,6.40
2018-04-18T05:10:45.358Z,6.23
2018-04-18T05:13:11.730Z,5.87
2018-04-18T05:15:38.074Z,6.17
2018-04-18T05:18:04.418Z,6.63
2018-04-18T05:20:30.811Z,6.97
2018-04-18T05:22:58.627Z,6.43
2018-04-18T05:25:25.769Z,7.00
2018-04-18T05:27:52.136Z,6.80
2018-04-18T05:30:18.559Z,7.07
2018-04-18T05:32:45.698Z,6.37
2018-04-18T05:35:12.813Z,6.17
2018-04-18T05:37:39.193Z,6.70
2018-04-18T05:40:05.626Z,6.07
2018-04-18T05:42:33.243Z,6.60
2018-04-18T05:44:59.654Z,7.07
2018-04-18T05:47:26.050Z,6.03
2018-04-18T05:49:53.177Z,6.37
2018-04-18T05:52:19.563Z,6.57
2018-04-18T05:54:45.943Z,6.60
2018-04-18T05:57:13.108Z,7.00
2018-04-18T05:59:39.501Z,6.80
2018-04-18T06:02:05.900Z,7.77
2018-04-18T06:04:32.347Z,7.50
2018-04-18T06:06:58.737Z,7.67
2018-04-18T06:09:25.862Z,7.97
2018-04-18T06:11:52.291Z,7.40
2018-04-18T06:14:18.718Z,7.53
2018-04-18T06:16:45.269Z,8.30
2018-04-18T06:19:12.491Z,7.87
2018-04-18T06:21:38.925Z,8.10
2018-04-18T06:24:05.414Z,7.50
2018-04-18T06:26:32.600Z,7.37
2018-04-18T06:28:59.010Z,7.37
2018-04-18T06:31:25.472Z,7.20
2018-04-18T06:33:51.902Z,7.37
2018-04-18T06:36:18.362Z,7.10
2018-04-18T06:38:44.834Z,8.10
2018-04-18T06:41:12.045Z,8.10
2018-04-18T06:43:38.534Z,8.60
2018-04-18T06:46:04.980Z,7.33
2018-04-18T06:48:31.420Z,7.60
2018-04-18T06:50:57.847Z,7.93
2018-04-18T06:53:24.291Z,7.80
2018-04-18T06:55:50.731Z,8.07
2018-04-18T06:58:17.155Z,7.80
2018-04-18T07:00:43.777Z,7.80
2018-04-18T07:03:10.222Z,7.30
2018-04-18T07:05:36.674Z,7.50
2018-04-18T07:08:03.140Z,7.13
2018-04-18T07:10:29.586Z,7.13
2018-04-18T07:12:56.762Z,6.80
2018-04-18T07:15:23.969Z,7.00
2018-04-18T07:17:50.435Z,6.87
2018-04-18T07:20:18.129Z,6.90
2018-04-18T07:22:44.562Z,7.80
2018-04-18T07:25:11.000Z,6.47
2018-04-18T07:27:37.501Z,7.40
2018-04-18T07:30:04.733Z,6.67
2018-04-18T07:32:31.161Z,6.20
2018-04-18T07:34:57.581Z,5.77
2018-04-18T07:37:24.014Z,5.73
2018-04-18T07:39:50.452Z,5.67
2018-04-18T07:42:17.598Z,5.47
2018-04-18T07:44:44.016Z,6.03
2018-04-18T07:47:10.426Z,6.03
2018-04-18T07:49:36.857Z,5.43
2018-04-18T07:52:03.302Z,5.50
2018-04-18T07:54:29.732Z,5.30
2018-04-18T07:56:56.157Z,6.27
2018-04-18T07:59:22.579Z,5.77
2018-04-18T08:01:49.027Z,5.70
2018-04-18T08:04:15.462Z,5.60
2018-04-18T08:06:41.886Z,4.97
2018-04-18T08:09:08.387Z,5.97
2018-04-18T08:11:35.685Z,5.73
2018-04-18T08:14:09.095Z,5.33
2018-04-18T08:16:35.600Z,5.77
2018-04-18T08:19:02.844Z,6.30
2018-04-18T08:21:29.275Z,6.10
2018-04-18T08:23:56.477Z,6.33
2018-04-18T08:26:22.983Z,6.80
2018-04-18T08:28:49.404Z,7.30
2018-04-18T08:31:15.828Z,6.53
2018-04-18T08:33:42.322Z,6.60
2018-04-18T08:36:08.811Z,6.90
2018-04-18T08:38:36.206Z,7.07
2018-04-18T08:41:02.681Z,6.83
2018-04-18T08:43:30.598Z,6.77
2018-04-18T08:45:57.199Z,6.67
2018-04-18T08:48:24.402Z,6.50
2018-04-18T08:50:50.868Z,5.87
2018-04-18T08:53:18.181Z,5.80
2018-04-18T08:55:44.678Z,3.97
2018-04-18T08:58:11.172Z,4.53
2018-04-18T09:00:37.739Z,4.90
2018-04-18T09:03:04.254Z,4.67
2018-04-18T09:05:30.797Z,5.27
2018-04-18T09:07:57.281Z,4.40
2018-04-18T09:10:23.714Z,4.33
2018-04-18T09:12:50.145Z,4.70
2018-04-18T09:15:16.579Z,4.10
2018-04-18T09:17:42.983Z,3.30
2018-04-18T09:20:10.159Z,3.00
2018-04-18T09:22:36.699Z,2.80
2018-04-18T09:25:03.181Z,3.67
2018-04-18T09:27:30.345Z,3.53
2018-04-18T09:29:56.767Z,3.83
2018-04-18T09:32:23.933Z,3.93
2018-04-18T09:34:50.357Z,4.20
2018-04-18T09:37:16.817Z,3.73
2018-04-18T09:39:43.295Z,3.60
2018-04-18T09:42:09.686Z,2.70
2018-04-18T09:44:36.107Z,2.97
2018-04-18T09:47:02.551Z,2.97
2018-04-18T09:49:28.953Z,3.93
2018-04-18T09:51:55.376Z,3.37
2018-04-18T09:54:22.544Z,3.77
2018-04-18T09:56:48.987Z,3.73
2018-04-18T09:59:15.414Z,3.30
2018-04-18T10:01:41.872Z,2.90
2018-04-18T10:04:09.151Z,8.70
2018-04-18T10:06:35.651Z,3.10
2018-04-18T10:09:02.157Z,2.50
2018-04-18T10:11:28.620Z,3.50
2018-04-18T10:13:55.033Z,2.77
2018-04-18T10:16:22.179Z,2.80
2018-04-18T10:18:49.348Z,3.00
2018-04-18T10:21:15.757Z,3.00
2018-04-18T10:23:42.204Z,2.70
2018-04-18T10:26:08.644Z,2.70
2018-04-18T10:28:35.065Z,2.47
2018-04-18T10:31:01.513Z,2.70
2018-04-18T10:33:27.969Z,3.00
2018-04-18T10:35:54.388Z,3.10
2018-04-18T10:38:20.823Z,2.93
2018-04-18T10:40:47.240Z,2.83
2018-04-18T10:43:13.696Z,3.30
2018-04-18T10:45:40.128Z,2.83
2018-04-18T10:48:06.571Z,2.80
2018-04-18T10:50:32.992Z,3.07
2018-04-18T10:52:59.453Z,2.70
2018-04-18T10:55:25.855Z,3.27
2018-04-18T10:57:52.279Z,3.07
2018-04-18T11:00:18.738Z,2.90
2018-04-18T11:02:45.162Z,2.83
2018-04-18T11:05:11.611Z,2.87
2018-04-18T11:07:38.069Z,2.97
2018-04-18T11:10:04.477Z,3.50
2018-04-18T11:12:30.898Z,2.80
2018-04-18T11:14:57.349Z,3.40
2018-04-18T11:17:23.772Z,3.27
2018-04-18T11:19:50.172Z,3.47
2018-04-18T11:22:16.589Z,3.43
2018-04-18T11:24:43.052Z,3.77
2018-04-18T11:27:09.547Z,3.53
2018-04-18T11:29:35.979Z,3.70
2018-04-18T11:32:02.419Z,4.13
2018-04-18T11:34:29.589Z,3.40
2018-04-18T11:36:56.021Z,3.47
2018-04-18T11:39:23.216Z,3.87
2018-04-18T11:41:49.671Z,3.63
2018-04-18T11:44:16.123Z,4.07
2018-04-18T11:46:42.612Z,3.47
2018-04-18T11:49:09.039Z,3.80
2018-04-18T11:51:35.488Z,4.37
2018-04-18T11:54:01.987Z,3.90
2018-04-18T11:56:28.424Z,3.87
2018-04-18T11:58:54.888Z,3.10
2018-04-18T12:01:21.334Z,4.07
2018-04-18T12:03:47.786Z,3.93
2018-04-18T12:06:14.261Z,4.33
2018-04-18T12:08:40.707Z,4.83
2018-04-18T12:11:07.144Z,4.83
2018-04-18T12:13:33.630Z,5.27
2018-04-18T12:16:00.114Z,4.53
2018-04-18T12:18:26.549Z,4.60
2018-04-18T12:20:53.028Z,4.63
2018-04-18T12:23:19.458Z,3.87
2018-04-18T12:25:45.911Z,3.80
2018-04-18T12:28:12.346Z,4.00
2018-04-18T12:30:39.540Z,4.27
2018-04-18T12:33:05.969Z,4.20
2018-04-18T12:35:32.398Z,4.33
2018-04-18T12:37:58.845Z,3.67
2018-04-18T12:40:25.319Z,3.67
2018-04-18T12:42:51.787Z,3.53
2018-04-18T12:45:18.223Z,3.80
2018-04-18T12:47:44.711Z,3.20
2018-04-18T12:50:11.902Z,5.03
2018-04-18T12:52:38.313Z,4.00
2018-04-18T12:55:04.791Z,3.33
2018-04-18T12:57:31.347Z,4.30
2018-04-18T12:59:57.762Z,4.30
2018-04-18T13:02:24.198Z,4.67
2018-04-18T13:04:50.638Z,4.57
2018-04-18T13:07:17.126Z,4.13
2018-04-18T13:09:43.605Z,4.07
2018-04-18T13:12:10.088Z,3.77
2018-04-18T13:14:37.288Z,3.20
2018-04-18T13:17:03.731Z,4.10
2018-04-18T13:19:30.438Z,3.50
2018-04-18T13:21:56.876Z,3.50
2018-04-18T13:24:23.294Z,3.63
2018-04-18T13:26:50.478Z,3.10
2018-04-18T13:29:16.882Z,2.50
2018-04-18T13:31:43.312Z,3.10
2018-04-18T13:34:09.746Z,2.70
2018-04-18T13:36:36.912Z,3.43
2018-04-18T13:39:03.422Z,3.47
2018-04-18T13:41:30.648Z,3.20
2018-04-18T13:43:57.056Z,3.40
2018-04-18T13:46:23.484Z,3.20
2018-04-18T13:48:49.908Z,2.83
2018-04-18T13:51:16.364Z,3.40
2018-04-18T13:53:42.797Z,3.03
2018-04-18T13:56:09.218Z,3.37
2018-04-18T13:58:35.677Z,3.20
2018-04-18T14:01:02.089Z,2.70
2018-04-18T14:03:28.515Z,3.53
2018-04-18T14:05:54.937Z,3.67
2018-04-18T14:08:21.383Z,3.67
2018-04-18T14:10:47.795Z,3.47
2018-04-18T14:13:14.238Z,3.90
2018-04-18T14:15:40.686Z,3.50
2018-04-18T14:18:07.114Z,3.33
2018-04-18T14:20:33.534Z,3.40
2018-04-18T14:22:59.945Z,2.90
2018-04-18T14:25:27.109Z,3.50
2018-04-18T14:27:54.275Z,3.60
2018-04-18T14:30:20.693Z,4.53
2018-04-18T14:32:47.858Z,4.50
2018-04-18T14:35:14.274Z,3.97
2018-04-18T14:37:40.724Z,5.10
2018-04-18T14:40:07.165Z,4.83
2018-04-18T14:42:33.584Z,4.63
2018-04-18T14:45:00.014Z,4.53
2018-04-18T14:47:26.435Z,4.73
2018-04-18T14:49:53.596Z,3.13
2018-04-18T14:52:20.755Z,3.87
2018-04-18T14:54:47.202Z,3.53
2018-04-18T14:57:13.629Z,4.03
2018-04-18T14:59:40.073Z,4.17
2018-04-18T15:02:06.502Z,4.87
2018-04-18T15:04:32.939Z,5.07
2018-04-18T15:06:59.378Z,4.50
2018-04-18T15:09:25.802Z,3.97
2018-04-18T15:11:52.227Z,3.87
2018-04-18T15:14:18.653Z,3.80
2018-04-18T15:16:45.058Z,4.53
2018-04-18T15:19:11.498Z,4.23
2018-04-18T15:21:37.932Z,4.07
2018-04-18T15:24:05.108Z,4.63
2018-04-18T15:26:31.595Z,3.60
2018-04-18T15:28:58.003Z,4.13
2018-04-18T15:31:24.488Z,3.93
2018-04-18T15:33:50.907Z,4.10
2018-04-18T15:36:17.385Z,3.80
2018-04-18T15:38:43.793Z,3.50
2018-04-18T15:41:10.234Z,3.67
2018-04-18T15:43:37.411Z,4.20
2018-04-18T15:46:03.854Z,4.03
2018-04-18T15:48:30.285Z,3.80
2018-04-18T15:50:56.718Z,3.40
2018-04-18T15:53:23.150Z,3.90
2018-04-18T15:55:49.620Z,3.40
2018-04-18T15:58:16.094Z,3.27
2018-04-18T16:00:42.522Z,3.50
2018-04-18T16:03:09.692Z,3.60
2018-04-18T16:05:36.154Z,3.83
2018-04-18T16:08:02.601Z,3.60
2018-04-18T16:10:29.038Z,3.23
2018-04-18T16:12:55.471Z,3.57
2018-04-18T16:15:21.900Z,3.70
2018-04-18T16:17:48.326Z,3.63
2018-04-18T16:20:14.760Z,3.57
2018-04-18T16:22:41.176Z,3.07
2018-04-18T16:25:07.617Z,3.40
2018-04-18T16:27:34.037Z,3.00
2018-04-18T16:30:00.451Z,2.70
2018-04-18T16:32:26.918Z,3.00
2018-04-18T16:34:53.374Z,2.63
2018-04-18T16:37:19.804Z,2.47
2018-04-18T16:39:46.223Z,3.00
2018-04-18T16:42:19.519Z,2.60
2018-04-18T16:44:45.942Z,3.17
2018-04-18T16:47:12.368Z,2.77
2018-04-18T16:49:38.791Z,2.70
2018-04-18T16:52:05.205Z,2.97
2018-04-18T16:54:31.629Z,2.83
2018-04-18T16:56:58.813Z,2.80
2018-04-18T16:59:25.252Z,2.70
2018-04-18T17:01:51.696Z,2.60
2018-04-18T17:04:18.114Z,2.47
2018-04-18T17:06:44.591Z,2.60
2018-04-18T17:09:10.990Z,2.63
2018-04-18T17:11:37.412Z,2.50
2018-04-18T17:14:03.892Z,2.67
2018-04-18T17:16:30.318Z,2.80
2018-04-18T17:18:56.745Z,3.10
2018-04-18T17:21:23.148Z,3.10
2018-04-18T17:23:49.588Z,4.67
2018-04-18T17:26:16.009Z,3.43
2018-04-18T17:28:42.424Z,2.87
2018-04-18T17:31:09.668Z,3.67
2018-04-18T17:33:36.848Z,2.90
2018-04-18T17:36:03.314Z,3.10
2018-04-18T17:38:29.781Z,2.63
2018-04-18T17:40:56.978Z,3.17
2018-04-18T17:43:23.402Z,2.50
2018-04-18T17:45:49.838Z,3.00
2018-04-18T17:48:16.244Z,2.60
2018-04-18T17:50:43.404Z,2.70
2018-04-18T17:53:10.584Z,2.87
2018-04-18T17:55:37.073Z,2.80
2018-04-18T17:58:04.241Z,3.10
2018-04-18T18:00:30.713Z,2.80
2018-04-18T18:02:57.147Z,2.63
2018-04-18T18:05:23.562Z,2.70
2018-04-18T18:07:49.998Z,2.70
2018-04-18T18:10:16.424Z,2.53
2018-04-18T18:12:42.868Z,3.47
2018-04-18T18:15:09.300Z,3.60
2018-04-18T18:17:35.735Z,3.20
2018-04-18T18:20:02.248Z,3.70
2018-04-18T18:22:28.677Z,3.73
2018-04-18T18:24:55.903Z,3.47
2018-04-18T18:27:23.111Z,2.97
2018-04-18T18:29:49.575Z,3.40
2018-04-18T18:32:16.034Z,3.17
2018-04-18T18:34:43.190Z,3.03
2018-04-18T18:37:10.369Z,3.37
2018-04-18T18:39:36.783Z,3.40
2018-04-18T18:42:03.216Z,2.90
2018-04-18T18:44:29.642Z,3.20
2018-04-18T18:46:56.826Z,3.83
2018-04-18T18:49:23.242Z,4.40
2018-04-18T18:51:49.670Z,3.90
2018-04-18T18:54:16.135Z,3.33
2018-04-18T18:56:42.559Z,3.40
2018-04-18T18:59:08.996Z,3.63
2018-04-18T19:01:35.417Z,3.10
2018-04-18T19:04:01.841Z,3.50
2018-04-18T19:06:28.249Z,2.90
2018-04-18T19:08:54.692Z,2.43
2018-04-18T19:11:21.861Z,2.83
2018-04-18T19:13:48.301Z,3.07
2018-04-18T19:16:14.755Z,3.30
2018-04-18T19:18:41.196Z,3.10
2018-04-18T19:21:07.646Z,3.40
2018-04-18T19:23:34.053Z,4.00
2018-04-18T19:26:00.490Z,3.60
2018-04-18T19:28:26.993Z,3.90
2018-04-18T19:30:53.357Z,3.37
2018-04-18T19:33:19.794Z,3.70
2018-04-18T19:35:46.203Z,4.53
2018-04-18T19:38:12.641Z,3.80
2018-04-18T19:40:39.059Z,3.73
2018-04-18T19:43:05.515Z,3.80
2018-04-18T19:45:31.951Z,3.27
2018-04-18T19:47:58.429Z,3.27
2018-04-18T19:50:24.966Z,3.17
2018-04-18T19:52:51.487Z,3.57
2018-04-18T19:55:17.991Z,2.97
2018-04-18T19:57:44.489Z,3.27
2018-04-18T20:00:12.459Z,3.17
2018-04-18T20:02:39.691Z,3.20
2018-04-18T20:05:06.200Z,3.17
2018-04-18T20:07:32.695Z,3.63
2018-04-18T20:09:59.175Z,2.63
2018-04-18T20:12:25.697Z,3.20
2018-04-18T20:14:52.163Z,3.30
2018-04-18T20:17:18.675Z,3.47
2018-04-18T20:19:45.179Z,3.43
2018-04-18T20:22:11.671Z,3.20
2018-04-18T20:24:38.169Z,3.23
2018-04-18T20:27:04.742Z,3.10
2018-04-18T20:29:31.183Z,3.50
2018-04-18T20:31:57.665Z,3.13
2018-04-18T20:34:24.178Z,3.20
2018-04-18T20:36:50.724Z,3.33
2018-04-18T20:39:17.315Z,3.10
2018-04-18T20:41:53.733Z,3.70
2018-04-18T20:44:20.198Z,3.73
2018-04-18T20:46:46.630Z,3.70
2018-04-18T20:49:13.164Z,3.63
2018-04-18T20:51:39.649Z,3.20
2018-04-18T20:54:06.875Z,3.97
2018-04-18T20:56:33.381Z,3.00
2018-04-18T20:58:59.871Z,3.53
2018-04-18T21:01:27.125Z,3.87
2018-04-18T21:03:53.628Z,3.80
2018-04-18T21:06:20.093Z,4.17
2018-04-18T21:08:47.344Z,3.53
2018-04-18T21:11:14.559Z,3.10
2018-04-18T21:13:42.252Z,3.80
2018-04-18T21:16:09.495Z,3.90
2018-04-18T21:18:35.982Z,3.37
2018-04-18T21:21:02.490Z,3.80
2018-04-18T21:23:28.981Z,3.90
2018-04-18T21:25:55.443Z,4.23
2018-04-18T21:28:22.697Z,3.80
2018-04-18T21:30:49.902Z,3.77
2018-04-18T21:33:16.367Z,4.00
2018-04-18T21:35:42.895Z,3.90
2018-04-18T21:38:09.376Z,3.43
2018-04-18T21:40:35.830Z,3.70
2018-04-18T21:43:02.369Z,3.30
2018-04-18T21:45:28.874Z,3.87
2018-04-18T21:47:55.381Z,4.20
2018-04-18T21:50:21.869Z,3.47
2018-04-18T21:52:49.499Z,4.00
2018-04-18T21:55:16.744Z,3.23
2018-04-18T21:57:43.989Z,3.83
2018-04-18T22:00:11.207Z,4.13
2018-04-18T22:02:37.670Z,3.53
2018-04-18T22:05:04.871Z,4.33
2018-04-18T22:07:31.316Z,3.50
2018-04-18T22:09:57.939Z,3.30
2018-04-18T22:12:24.401Z,3.27
2018-04-18T22:14:50.862Z,3.93
2018-04-18T22:17:18.071Z,3.90
2018-04-18T22:19:44.576Z,3.97
2018-04-18T22:22:11.077Z,4.03
2018-04-18T22:24:37.632Z,4.17
2018-04-18T22:27:04.195Z,3.63
2018-04-18T22:29:30.671Z,3.73
2018-04-18T22:31:57.221Z,4.60
2018-04-18T22:34:23.681Z,3.37
2018-04-18T22:36:50.890Z,3.50
2018-04-18T22:39:17.385Z,3.33
2018-04-18T22:41:43.876Z,4.00
2018-04-18T22:44:10.355Z,3.70
2018-04-18T22:46:36.819Z,3.97
2018-04-18T22:49:03.293Z,3.20
2018-04-18T22:51:29.757Z,4.03
2018-04-18T22:53:56.991Z,4.00
2018-04-18T22:56:23.492Z,3.70
2018-04-18T22:58:49.971Z,4.00
2018-04-18T23:01:17.067Z,2.97
2018-04-18T23:03:43.530Z,4.47
2018-04-18T23:06:10.021Z,3.43
2018-04-18T23:08:36.544Z,3.77
2018-04-18T23:11:03.050Z,4.00
2018-04-18T23:13:29.488Z,4.50
2018-04-18T23:15:56.703Z,3.70
2018-04-18T23:18:23.190Z,3.73
2018-04-18T23:20:49.634Z,4.23
2018-04-18T23:23:16.085Z,3.17
2018-04-18T23:25:42.610Z,3.80
2018-04-18T23:28:09.114Z,3.90
2018-04-18T23:30:35.535Z,3.87
2018-04-18T23:33:02.752Z,4.07
2018-04-18T23:35:29.256Z,3.33
2018-04-18T23:37:55.728Z,4.10
2018-04-18T23:40:22.167Z,3.60
2018-04-18T23:42:48.630Z,4.07
2018-04-18T23:45:15.858Z,4.03
2018-04-18T23:47:42.314Z,3.67
2018-04-18T23:50:09.567Z,4.23
2018-04-18T23:52:36.005Z,4.23
2018-04-18T23:55:03.293Z,3.80
2018-04-18T23:57:29.867Z,3.60
2018-04-18T23:59:56.362Z,4.27
